Arlington, CA

1:15 AM PDT on March 27, 2015 (GMT -0700)
Arlington Heights | | Change Station
CLOSE
Current Station
Personal Weather Station
Location: Riverside, CA
Elevation: 788 ft
Nearby Weather Stations

Elev 788 ft 33.89 °N, 117.47 °W | Updated 11 minutes ago

Clear
Clear
63.8 °F
Feels Like 63.8 °F
N
0.0
Wind Variable Wind from North
Gusts 0.0 mph

Today
High -- | Low -- °F
--% Chance of Precip.
Yesterday
High -- | Low -- °F
Precip. -- in
6:44 AM 7:06 PM
Waxing Crescent, 50% visible
Pressure 30.02 in
Visibility 10.0 miles
Clouds Clear
Dew Point 45 °F
Humidity 51%
Rainfall -999.00 in
Snow Depth Not available.
UV 0 out of 12
Pollen 9.80 out of 12
Air Quality Not available.
Flu Activity Not available.
METAR KRAL 270753Z AUTO 08003KT 10SM CLR 18/03 A3007 RMK AO2 SLP166 T01830033 403440128

More Conditions Fewer Conditions

Pressure 30.02 in
Visibility 10.0 miles
Clouds Clear
Dew Point 45 °F
Humidity 51%
Rainfall -999.00 in
Snow Depth Not available.
UV 0 out of 12
Pollen 9.80 out of 12
Air Quality Not available.
Flu Activity Not available.
METAR KRAL 270753Z AUTO 08003KT 10SM CLR 18/03 A3007 RMK AO2 SLP166 T01830033 403440128

More Conditions Fewer Conditions

10-Day Weather Forecast

Almanac

Astronomy

Mar. 27, 2015 Rise Set
Actual Time
Civil Twilight
Nautical Twilight
Astronomical Twilight
Moon
Length of Visible Light
Length of Day
Tomorrow will be .
, % of the Moon is Illuminated

Today's Extremes

State Highs State Lows

Community

WunderPhotos

Upload Photos

1,808,705 photos uploaded!

WunderBlogs® & News

Nearby

Air Quality

  Air Quality AQ Index Pollutant
Not available.

Snow Depth

Station Depth Elevation

Earthquake Activity

City Distance Mag. Time & Date
Minimum magnitude displayed is 2.5.

Coastal Water Temperatures

Place Temperature

Stations

Nearby Weather Stations

Station Location Temp. Windchill Dew Point Humidity Wind Precip. Elev Updated Type